Terminal Aerodrome Forecast
Issued by NWS

Home | Current Version | Previous Version | Text Only | Print | Product List | Glossary On
Versions: 1 2 3 4 5 6 7 8 9 10 11 12
000
FTUS42 TJSJ 282320
TAFNCM
TAF
TNCM 282320Z 2900/2924 09006KT P6SM FEW025 SCT040
     FM291300 09010KT P6SM SCT020
     FM292300 12005KT P6SM SCT022=

USA.gov is the U.S. government's official web portal to all federal, state and local government web resources and services.